createdAt,value
2018-07-05T00:00:28.611Z,22.9
2018-07-05T00:01:18.419Z,22.8
2018-07-05T00:02:09.566Z,22.9
2018-07-05T00:02:59.302Z,22.8
2018-07-05T00:03:48.326Z,22.8
2018-07-05T00:04:39.225Z,22.8
2018-07-05T00:05:28.493Z,22.8
2018-07-05T00:06:19.300Z,22.9
2018-07-05T00:07:09.720Z,22.8
2018-07-05T00:07:59.180Z,22.9
2018-07-05T00:08:48.404Z,22.9
2018-07-05T00:09:39.292Z,22.8
2018-07-05T00:10:29.325Z,22.8
2018-07-05T00:11:19.790Z,22.9
2018-07-05T00:12:09.780Z,22.8
2018-07-05T00:13:00.404Z,22.8
2018-07-05T00:13:48.883Z,22.8
2018-07-05T00:14:39.190Z,22.8
2018-07-05T00:15:30.297Z,22.9
2018-07-05T00:16:20.114Z,22.9
2018-07-05T00:17:10.222Z,22.8
2018-07-05T00:18:00.255Z,22.9
2018-07-05T00:18:49.411Z,22.8
2018-07-05T00:19:40.658Z,22.9
2018-07-05T00:20:29.847Z,22.9
2018-07-05T00:21:20.477Z,22.8
2018-07-05T00:22:09.704Z,22.9
2018-07-05T00:23:00.921Z,22.8
2018-07-05T00:23:50.102Z,22.9
2018-07-05T00:24:40.723Z,22.9
2018-07-05T00:25:30.814Z,22.9
2018-07-05T00:26:21.142Z,22.9
2018-07-05T00:27:10.102Z,22.8
2018-07-05T00:28:00.109Z,22.8
2018-07-05T00:28:51.599Z,22.9
2018-07-05T00:29:41.116Z,22.9
2018-07-05T00:30:31.486Z,22.8
2018-07-05T00:31:21.261Z,22.9
2018-07-05T00:32:10.797Z,22.9
2018-07-05T00:33:01.364Z,22.8
2018-07-05T00:33:50.830Z,22.8
2018-07-05T00:34:42.031Z,22.9
2018-07-05T00:35:31.789Z,22.9
2018-07-05T00:36:21.569Z,22.8
2018-07-05T00:37:11.950Z,22.8
2018-07-05T00:38:02.203Z,22.9
2018-07-05T00:38:51.489Z,22.9
2018-07-05T00:39:41.507Z,22.8
2018-07-05T00:40:31.874Z,22.8
2018-07-05T00:41:21.346Z,22.8
2018-07-05T00:42:12.238Z,22.8
2018-07-05T00:43:02.048Z,22.9
2018-07-05T00:43:52.124Z,22.9
2018-07-05T00:44:42.444Z,22.8
2018-07-05T00:45:32.271Z,22.9
2018-07-05T00:46:22.038Z,22.8
2018-07-05T00:47:12.678Z,22.9
2018-07-05T00:48:02.728Z,22.8
2018-07-05T00:48:51.745Z,22.8
2018-07-05T00:49:42.631Z,22.8
2018-07-05T00:50:32.932Z,22.8
2018-07-05T00:51:22.931Z,22.9
2018-07-05T00:52:13.063Z,22.8
2018-07-05T00:53:03.108Z,22.9
2018-07-05T00:53:52.640Z,22.8
2018-07-05T00:54:42.160Z,22.8
2018-07-05T00:55:33.084Z,22.9
2018-07-05T00:56:23.392Z,22.9
2018-07-05T00:57:13.453Z,22.9
2018-07-05T00:58:03.536Z,22.9
2018-07-05T00:58:53.275Z,22.8
2018-07-05T00:59:43.347Z,22.8
2018-07-05T01:00:33.466Z,22.9
2018-07-05T01:01:23.232Z,22.8
2018-07-05T01:02:13.575Z,22.9
2018-07-05T01:03:03.300Z,22.9
2018-07-05T01:03:54.211Z,22.8
2018-07-05T01:04:43.795Z,22.9
2018-07-05T01:05:33.814Z,22.9
2018-07-05T01:06:23.901Z,22.8
2018-07-05T01:07:13.946Z,22.9
2018-07-05T01:08:04.319Z,22.8
2018-07-05T01:08:53.766Z,22.9
2018-07-05T01:09:44.478Z,22.8
2018-07-05T01:10:34.272Z,22.9
2018-07-05T01:11:24.281Z,22.8
2018-07-05T01:12:14.341Z,22.9
2018-07-05T01:13:04.434Z,22.8
2018-07-05T01:13:54.423Z,22.8
2018-07-05T01:14:44.568Z,22.8
2018-07-05T01:15:34.993Z,22.8
2018-07-05T01:16:24.908Z,22.9
2018-07-05T01:17:15.020Z,22.8
2018-07-05T01:18:04.548Z,22.8
2018-07-05T01:18:54.873Z,22.8
2018-07-05T01:19:44.363Z,22.8
2018-07-05T01:20:34.683Z,22.8
2018-07-05T01:21:25.390Z,22.8
2018-07-05T01:22:15.413Z,22.8
2018-07-05T01:23:05.464Z,22.8
2018-07-05T01:23:54.930Z,22.8
2018-07-05T01:24:45.820Z,22.8
2018-07-05T01:25:35.171Z,22.9
2018-07-05T01:26:26.007Z,22.8
2018-07-05T01:27:15.200Z,22.8
2018-07-05T01:28:05.588Z,22.8
2018-07-05T01:28:55.626Z,22.8
2018-07-05T01:29:45.963Z,22.8
2018-07-05T01:30:34.926Z,22.8
2018-07-05T01:31:25.553Z,22.9
2018-07-05T01:32:15.881Z,22.9
2018-07-05T01:33:06.218Z,22.8
2018-07-05T01:33:55.162Z,22.8
2018-07-05T01:34:45.267Z,22.8
2018-07-05T01:35:35.546Z,22.9
2018-07-05T01:36:26.541Z,22.8
2018-07-05T01:37:16.045Z,22.8
2018-07-05T01:38:06.369Z,22.8
2018-07-05T01:38:56.679Z,22.8
2018-07-05T01:39:46.181Z,22.8
2018-07-05T01:40:37.104Z,22.9
2018-07-05T01:41:27.311Z,22.8
2018-07-05T01:42:16.680Z,22.8
2018-07-05T01:43:06.738Z,22.8
2018-07-05T01:43:56.821Z,22.8
2018-07-05T01:44:46.902Z,22.8
2018-07-05T01:45:37.560Z,22.8
2018-07-05T01:46:27.578Z,22.8
2018-07-05T01:47:17.003Z,22.8
2018-07-05T01:48:07.476Z,22.8
2018-07-05T01:48:57.692Z,22.9
2018-07-05T01:49:46.750Z,22.8
2018-07-05T01:50:37.856Z,22.8
2018-07-05T01:51:27.373Z,22.8
2018-07-05T01:52:17.974Z,22.8
2018-07-05T01:53:07.509Z,22.8
2018-07-05T01:53:57.529Z,22.8
2018-07-05T01:54:47.937Z,22.8
2018-07-05T01:55:38.232Z,22.8
2018-07-05T01:56:28.053Z,22.8
2018-07-05T01:57:18.581Z,22.8
2018-07-05T01:58:08.511Z,22.9
2018-07-05T01:58:58.243Z,22.9
2018-07-05T01:59:48.321Z,22.8
2018-07-05T02:00:38.429Z,22.8
2018-07-05T02:01:28.163Z,22.8
2018-07-05T02:02:17.660Z,22.8
2018-07-05T02:03:07.769Z,22.8
2018-07-05T02:03:58.324Z,22.8
2018-07-05T02:04:48.409Z,22.8
2018-07-05T02:05:38.202Z,22.8
2018-07-05T02:06:28.844Z,22.8
2018-07-05T02:07:18.900Z,22.8
2018-07-05T02:08:08.739Z,22.8
2018-07-05T02:08:59.315Z,22.8
2018-07-05T02:09:49.229Z,22.8
2018-07-05T02:10:39.302Z,22.8
2018-07-05T02:11:29.760Z,22.8
2018-07-05T02:12:19.700Z,22.8
2018-07-05T02:13:08.887Z,22.8
2018-07-05T02:13:59.812Z,22.8
2018-07-05T02:14:48.462Z,22.8
2018-07-05T02:15:39.943Z,22.8
2018-07-05T02:16:29.979Z,22.8
2018-07-05T02:17:18.640Z,22.8
2018-07-05T02:18:10.128Z,22.8
2018-07-05T02:19:00.187Z,22.8
2018-07-05T02:19:49.909Z,22.8
2018-07-05T02:20:40.239Z,22.8
2018-07-05T02:21:30.344Z,22.8
2018-07-05T02:22:19.781Z,22.8
2018-07-05T02:23:10.376Z,22.8
2018-07-05T02:24:00.169Z,22.8
2018-07-05T02:24:50.473Z,22.8
2018-07-05T02:25:40.562Z,22.8
2018-07-05T02:26:30.061Z,22.8
2018-07-05T02:27:20.771Z,22.8
2018-07-05T02:28:10.516Z,22.8
2018-07-05T02:29:00.276Z,22.8
2018-07-05T02:29:50.321Z,22.8
2018-07-05T02:30:40.999Z,22.8
2018-07-05T02:31:30.793Z,22.8
2018-07-05T02:32:20.841Z,22.8
2018-07-05T02:33:10.656Z,22.8
2018-07-05T02:34:01.001Z,22.8
2018-07-05T02:34:51.343Z,22.8
2018-07-05T02:35:41.165Z,22.8
2018-07-05T02:36:31.521Z,22.8
2018-07-05T02:37:21.246Z,22.8
2018-07-05T02:38:11.250Z,22.8
2018-07-05T02:39:01.351Z,22.8
2018-07-05T02:39:51.711Z,22.8
2018-07-05T02:40:41.262Z,22.8
2018-07-05T02:41:31.891Z,22.8
2018-07-05T02:42:21.678Z,22.8
2018-07-05T02:43:11.543Z,22.8
2018-07-05T02:44:01.257Z,22.8
2018-07-05T02:44:51.805Z,22.8
2018-07-05T02:45:41.603Z,22.8
2018-07-05T02:46:32.021Z,22.8
2018-07-05T02:47:22.351Z,22.8
2018-07-05T02:48:12.143Z,22.8
2018-07-05T02:49:01.322Z,22.8
2018-07-05T02:49:52.457Z,22.8
2018-07-05T02:50:42.245Z,22.8
2018-07-05T02:51:32.400Z,22.8
2018-07-05T02:52:22.718Z,22.8
2018-07-05T02:53:12.714Z,22.8
2018-07-05T02:54:02.872Z,22.8
2018-07-05T02:54:52.860Z,22.8
2018-07-05T02:55:42.955Z,22.8
2018-07-05T02:56:32.183Z,22.8
2018-07-05T02:57:22.531Z,22.8
2018-07-05T02:58:12.890Z,22.8
2018-07-05T02:59:02.929Z,22.8
2018-07-05T02:59:52.465Z,22.8
2018-07-05T03:00:42.814Z,22.8
2018-07-05T03:01:32.899Z,22.8
2018-07-05T03:02:22.721Z,22.8
2018-07-05T03:03:13.105Z,22.8
2018-07-05T03:04:03.387Z,22.8
2018-07-05T03:04:52.880Z,22.8
2018-07-05T03:05:43.492Z,22.8
2018-07-05T03:06:32.987Z,22.8
2018-07-05T03:07:22.787Z,22.8
2018-07-05T03:08:13.122Z,22.8
2018-07-05T03:09:03.480Z,22.8
2018-07-05T03:09:53.554Z,22.8
2018-07-05T03:10:43.605Z,22.8
2018-07-05T03:11:34.253Z,22.8
2018-07-05T03:12:24.241Z,22.8
2018-07-05T03:13:13.484Z,22.8
2018-07-05T03:14:03.806Z,22.8
2018-07-05T03:14:53.615Z,22.8
2018-07-05T03:15:44.242Z,22.8
2018-07-05T03:16:34.624Z,22.8
2018-07-05T03:17:24.614Z,22.8
2018-07-05T03:18:14.536Z,22.8
2018-07-05T03:19:04.876Z,22.8
2018-07-05T03:19:54.856Z,22.8
2018-07-05T03:20:44.409Z,22.8
2018-07-05T03:21:34.694Z,22.8
2018-07-05T03:22:25.033Z,22.8
2018-07-05T03:23:14.658Z,22.8
2018-07-05T03:24:04.671Z,22.8
2018-07-05T03:24:55.072Z,22.8
2018-07-05T03:25:45.141Z,22.8
2018-07-05T03:26:34.284Z,22.8
2018-07-05T03:27:23.841Z,22.8
2018-07-05T03:28:14.975Z,22.8
2018-07-05T03:29:05.040Z,22.8
2018-07-05T03:29:55.094Z,22.8
2018-07-05T03:30:45.265Z,22.8
2018-07-05T03:31:34.699Z,22.8
2018-07-05T03:32:25.801Z,22.8
2018-07-05T03:33:15.581Z,22.8
2018-07-05T03:34:05.630Z,22.8
2018-07-05T03:34:55.475Z,22.8
2018-07-05T03:35:45.816Z,22.8
2018-07-05T03:36:36.127Z,22.8
2018-07-05T03:37:25.352Z,22.8
2018-07-05T03:38:15.713Z,22.8
2018-07-05T03:39:06.305Z,22.8
2018-07-05T03:39:54.995Z,22.8
2018-07-05T03:40:46.244Z,22.8
2018-07-05T03:41:36.013Z,22.8
2018-07-05T03:42:26.042Z,22.8
2018-07-05T03:43:16.392Z,22.8
2018-07-05T03:44:05.906Z,22.8
2018-07-05T03:44:56.514Z,22.7
2018-07-05T03:45:46.277Z,22.7
2018-07-05T03:46:36.068Z,22.7
2018-07-05T03:47:26.379Z,22.7
2018-07-05T03:48:16.439Z,22.6
2018-07-05T03:49:06.874Z,22.6
2018-07-05T03:49:56.901Z,22.6
2018-07-05T03:50:46.699Z,22.6
2018-07-05T03:51:36.642Z,22.6
2018-07-05T03:52:27.341Z,22.6
2018-07-05T03:53:17.135Z,22.6
2018-07-05T03:54:07.199Z,22.6
2018-07-05T03:54:57.193Z,22.6
2018-07-05T03:55:47.261Z,22.5
2018-07-05T03:56:37.082Z,22.5
2018-07-05T03:57:27.383Z,22.6
2018-07-05T03:58:17.726Z,22.5
2018-07-05T03:59:07.594Z,22.5
2018-07-05T03:59:57.903Z,22.5
2018-07-05T04:00:47.641Z,22.5
2018-07-05T04:01:37.757Z,22.5
2018-07-05T04:02:27.853Z,22.5
2018-07-05T04:03:17.582Z,22.5
2018-07-05T04:04:08.202Z,22.5
2018-07-05T04:04:57.754Z,22.5
2018-07-05T04:05:48.405Z,22.5
2018-07-05T04:06:38.203Z,22.5
2018-07-05T04:07:27.968Z,22.4
2018-07-05T04:08:18.831Z,22.5
2018-07-05T04:09:08.021Z,22.4
2018-07-05T04:09:58.421Z,22.4
2018-07-05T04:10:48.759Z,22.5
2018-07-05T04:11:37.559Z,22.5
2018-07-05T04:12:27.856Z,22.5
2018-07-05T04:13:18.016Z,22.5
2018-07-05T04:14:07.720Z,22.5
2018-07-05T04:14:57.548Z,22.5
2018-07-05T04:15:46.688Z,22.5
2018-07-05T04:16:37.168Z,22.5
2018-07-05T04:17:27.726Z,22.4
2018-07-05T04:18:17.228Z,22.5
2018-07-05T04:19:07.440Z,22.5
2018-07-05T04:19:56.773Z,22.5
2018-07-05T04:20:47.444Z,22.5
2018-07-05T04:21:37.633Z,22.5
2018-07-05T04:22:27.184Z,22.5
2018-07-05T04:23:17.731Z,22.5
2018-07-05T04:24:07.994Z,22.5
2018-07-05T04:24:58.197Z,22.5
2018-07-05T04:25:47.962Z,22.5
2018-07-05T04:26:38.982Z,22.5
2018-07-05T04:27:27.188Z,22.5
2018-07-05T04:28:17.953Z,22.5
2018-07-05T04:29:07.603Z,22.5
2018-07-05T04:29:58.023Z,22.5
2018-07-05T04:30:48.279Z,22.5
2018-07-05T04:31:38.445Z,22.5
2018-07-05T04:32:28.775Z,22.6
2018-07-05T04:33:19.373Z,22.6
2018-07-05T04:34:09.890Z,22.6
2018-07-05T04:34:58.725Z,22.6
2018-07-05T04:35:49.395Z,22.6
2018-07-05T04:36:39.197Z,22.6
2018-07-05T04:37:28.997Z,22.6
2018-07-05T04:38:18.523Z,22.6
2018-07-05T04:39:09.327Z,22.6
2018-07-05T04:39:58.315Z,22.6
2018-07-05T04:40:49.028Z,22.6
2018-07-05T04:41:38.892Z,22.6
2018-07-05T04:42:30.133Z,22.6
2018-07-05T04:43:19.297Z,22.6
2018-07-05T04:44:09.058Z,22.6
2018-07-05T04:45:00.123Z,22.6
2018-07-05T04:45:49.984Z,22.6
2018-07-05T04:46:39.950Z,22.6
2018-07-05T04:47:29.769Z,22.6
2018-07-05T04:48:19.467Z,22.6
2018-07-05T04:49:10.490Z,22.7
2018-07-05T04:50:00.152Z,22.7
2018-07-05T04:50:50.344Z,22.7
2018-07-05T04:51:39.624Z,22.7
2018-07-05T04:52:30.066Z,22.7
2018-07-05T04:53:21.334Z,22.7
2018-07-05T04:54:10.179Z,22.7
2018-07-05T04:55:00.523Z,22.7
2018-07-05T04:55:50.412Z,22.7
2018-07-05T04:56:41.695Z,22.7
2018-07-05T04:57:30.041Z,22.7
2018-07-05T04:58:20.311Z,22.8
2018-07-05T04:59:10.405Z,22.7
2018-07-05T05:00:01.637Z,22.8
2018-07-05T05:00:50.598Z,22.8
2018-07-05T05:01:41.294Z,22.8
2018-07-05T05:02:33.594Z,22.8
2018-07-05T05:03:22.915Z,22.8
2018-07-05T05:04:12.616Z,22.8
2018-07-05T05:05:01.959Z,22.8
2018-07-05T05:05:53.026Z,22.8
2018-07-05T05:06:42.514Z,22.8
2018-07-05T05:07:32.638Z,22.8
2018-07-05T05:08:22.444Z,22.8
2018-07-05T05:09:12.732Z,22.8
2018-07-05T05:10:01.950Z,22.8
2018-07-05T05:10:53.130Z,22.8
2018-07-05T05:11:42.941Z,22.8
2018-07-05T05:12:33.010Z,22.8
2018-07-05T05:13:23.025Z,22.8
2018-07-05T05:14:13.373Z,22.8
2018-07-05T05:15:04.298Z,22.8
2018-07-05T05:15:53.001Z,22.8
2018-07-05T05:16:43.580Z,22.8
2018-07-05T05:17:33.951Z,22.8
2018-07-05T05:18:23.688Z,22.8
2018-07-05T05:19:14.113Z,22.8
2018-07-05T05:20:03.595Z,22.8
2018-07-05T05:20:53.381Z,22.8
2018-07-05T05:21:43.281Z,22.8
2018-07-05T05:22:32.485Z,22.8
2018-07-05T05:23:22.603Z,22.8
2018-07-05T05:24:13.757Z,22.8
2018-07-05T05:25:02.450Z,22.8
2018-07-05T05:25:53.317Z,22.8
2018-07-05T05:26:43.856Z,22.8
2018-07-05T05:27:33.717Z,22.8
2018-07-05T05:28:23.662Z,22.8
2018-07-05T05:29:14.332Z,22.8
2018-07-05T05:30:05.527Z,22.8
2018-07-05T05:30:54.185Z,22.8
2018-07-05T05:31:44.467Z,22.8
2018-07-05T05:32:35.083Z,22.8
2018-07-05T05:33:24.354Z,22.8
2018-07-05T05:34:14.685Z,22.8
2018-07-05T05:35:04.483Z,22.8
2018-07-05T05:35:55.088Z,22.8
2018-07-05T05:36:45.450Z,22.8
2018-07-05T05:37:35.211Z,22.8
2018-07-05T05:38:24.793Z,22.8
2018-07-05T05:39:14.897Z,22.8
2018-07-05T05:40:05.414Z,22.8
2018-07-05T05:40:54.975Z,22.8
2018-07-05T05:41:45.061Z,22.8
2018-07-05T05:42:35.030Z,22.8
2018-07-05T05:43:25.992Z,22.8
2018-07-05T05:44:15.584Z,22.8
2018-07-05T05:45:05.582Z,22.8
2018-07-05T05:45:55.881Z,22.8
2018-07-05T05:46:45.619Z,22.8
2018-07-05T05:47:36.197Z,22.8
2018-07-05T05:48:26.108Z,22.8
2018-07-05T05:49:16.090Z,22.8
2018-07-05T05:50:05.969Z,22.8
2018-07-05T05:50:56.507Z,22.8
2018-07-05T05:51:45.764Z,22.8
2018-07-05T05:52:36.347Z,22.8
2018-07-05T05:53:26.413Z,22.8
2018-07-05T05:54:16.479Z,22.8
2018-07-05T05:55:06.751Z,22.8
2018-07-05T05:55:56.916Z,22.8
2018-07-05T05:56:46.944Z,22.8
2018-07-05T05:57:36.451Z,22.8
2018-07-05T05:58:26.804Z,22.8
2018-07-05T05:59:16.583Z,22.8
2018-07-05T06:00:06.356Z,22.8
2018-07-05T06:00:56.771Z,22.8
2018-07-05T06:01:47.472Z,22.8
2018-07-05T06:02:36.844Z,22.8
2018-07-05T06:03:25.818Z,22.8
2018-07-05T06:04:16.749Z,22.8
2018-07-05T06:05:07.061Z,22.8
2018-07-05T06:05:56.822Z,22.8
2018-07-05T06:06:47.499Z,22.8
2018-07-05T06:07:36.967Z,22.8
2018-07-05T06:08:27.626Z,22.8
2018-07-05T06:09:16.908Z,22.8
2018-07-05T06:10:07.951Z,22.8
2018-07-05T06:10:57.263Z,22.8
2018-07-05T06:11:47.860Z,22.8
2018-07-05T06:12:37.968Z,22.8
2018-07-05T06:13:27.691Z,22.8
2018-07-05T06:14:17.516Z,22.8
2018-07-05T06:15:07.827Z,22.8
2018-07-05T06:15:58.170Z,22.9
2018-07-05T06:16:48.465Z,22.8
2018-07-05T06:17:38.071Z,22.8
2018-07-05T06:18:27.848Z,22.9
2018-07-05T06:19:18.496Z,22.8
2018-07-05T06:20:08.777Z,22.8
2018-07-05T06:20:58.505Z,22.9
2018-07-05T06:21:48.898Z,22.8
2018-07-05T06:22:38.614Z,22.8
2018-07-05T06:23:28.691Z,22.8
2018-07-05T06:24:19.079Z,22.9
2018-07-05T06:25:09.195Z,22.8
2018-07-05T06:25:59.179Z,22.8
2018-07-05T06:26:48.686Z,22.8
2018-07-05T06:27:39.109Z,22.8
2018-07-05T06:28:28.841Z,22.8
2018-07-05T06:29:19.177Z,22.8
2018-07-05T06:30:08.408Z,22.8
2018-07-05T06:30:59.027Z,22.8
2018-07-05T06:31:49.519Z,22.9
2018-07-05T06:32:39.453Z,22.8
2018-07-05T06:33:29.230Z,22.8
2018-07-05T06:34:20.130Z,22.8
2018-07-05T06:35:10.089Z,22.8
2018-07-05T06:36:00.047Z,22.8
2018-07-05T06:36:49.596Z,22.8
2018-07-05T06:37:39.380Z,22.8
2018-07-05T06:38:29.999Z,22.8
2018-07-05T06:39:19.824Z,22.8
2018-07-05T06:40:09.833Z,22.9
2018-07-05T06:40:59.663Z,22.8
2018-07-05T06:41:50.161Z,22.8
2018-07-05T06:42:39.746Z,22.9
2018-07-05T06:43:30.431Z,22.8
2018-07-05T06:44:19.584Z,22.9
2018-07-05T06:45:10.234Z,22.9
2018-07-05T06:45:59.964Z,22.8
2018-07-05T06:46:50.437Z,22.8
2018-07-05T06:47:40.142Z,22.9
2018-07-05T06:48:30.267Z,22.9
2018-07-05T06:49:20.055Z,22.9
2018-07-05T06:50:09.853Z,22.9
2018-07-05T06:50:59.924Z,22.9
2018-07-05T06:51:50.266Z,22.9
2018-07-05T06:52:39.449Z,22.9
2018-07-05T06:53:30.395Z,22.9
2018-07-05T06:54:19.616Z,22.9
2018-07-05T06:55:11.260Z,22.9
2018-07-05T06:56:01.307Z,22.9
2018-07-05T06:56:51.919Z,22.9
2018-07-05T06:57:41.548Z,22.9
2018-07-05T06:58:31.764Z,22.9
2018-07-05T06:59:22.406Z,22.9
2018-07-05T07:00:10.811Z,22.9
2018-07-05T07:01:00.944Z,22.9
2018-07-05T07:01:51.739Z,22.9
2018-07-05T07:02:41.279Z,22.8
2018-07-05T07:03:31.031Z,22.8
2018-07-05T07:04:21.970Z,22.8
2018-07-05T07:05:11.668Z,22.8
2018-07-05T07:06:01.482Z,22.8
2018-07-05T07:06:51.839Z,22.8
2018-07-05T07:07:41.665Z,22.8
2018-07-05T07:08:32.179Z,22.8
2018-07-05T07:09:22.319Z,22.8
2018-07-05T07:10:12.400Z,22.8
2018-07-05T07:11:02.176Z,22.8
2018-07-05T07:11:52.729Z,22.8
2018-07-05T07:12:42.019Z,22.8
2018-07-05T07:13:32.319Z,22.8
2018-07-05T07:14:21.891Z,22.8
2018-07-05T07:15:12.251Z,22.8
2018-07-05T07:16:03.489Z,22.8
2018-07-05T07:16:52.915Z,22.8
2018-07-05T07:17:42.394Z,22.8
2018-07-05T07:18:32.476Z,22.8
2018-07-05T07:19:23.440Z,22.8
2018-07-05T07:20:12.912Z,22.8
2018-07-05T07:21:02.970Z,22.8
2018-07-05T07:21:53.284Z,22.8
2018-07-05T07:22:43.041Z,22.8
2018-07-05T07:23:33.407Z,22.8
2018-07-05T07:24:23.563Z,22.8
2018-07-05T07:25:13.256Z,22.8
2018-07-05T07:26:03.610Z,22.8
2018-07-05T07:26:54.043Z,22.8
2018-07-05T07:27:42.944Z,22.8
2018-07-05T07:28:33.849Z,22.8
2018-07-05T07:29:24.158Z,22.8
2018-07-05T07:30:13.673Z,22.8
2018-07-05T07:31:03.175Z,22.8
2018-07-05T07:31:56.023Z,22.8
2018-07-05T07:32:43.634Z,22.8
2018-07-05T07:33:33.721Z,22.8
2018-07-05T07:34:23.997Z,22.8
2018-07-05T07:35:14.443Z,22.8
2018-07-05T07:36:04.098Z,22.8
2018-07-05T07:36:54.509Z,22.8
2018-07-05T07:37:45.505Z,22.8
2018-07-05T07:38:34.894Z,22.8
2018-07-05T07:39:24.347Z,22.8
2018-07-05T07:40:14.221Z,22.8
2018-07-05T07:41:04.806Z,22.8
2018-07-05T07:41:55.101Z,22.8
2018-07-05T07:42:44.679Z,22.8
2018-07-05T07:43:34.232Z,22.8
2018-07-05T07:44:23.943Z,22.8
2018-07-05T07:45:14.289Z,22.8
2018-07-05T07:46:04.969Z,22.8
2018-07-05T07:46:54.923Z,22.8
2018-07-05T07:47:45.051Z,22.8
2018-07-05T07:48:35.660Z,22.8
2018-07-05T07:49:24.878Z,22.8
2018-07-05T07:50:15.577Z,22.8
2018-07-05T07:51:05.592Z,22.8
2018-07-05T07:51:55.943Z,22.8
2018-07-05T07:52:45.720Z,22.8
2018-07-05T07:53:35.495Z,22.8
2018-07-05T07:54:25.840Z,22.8
2018-07-05T07:55:15.418Z,22.8
2018-07-05T07:56:06.231Z,22.8
2018-07-05T07:56:55.775Z,22.8
2018-07-05T07:57:46.340Z,22.8
2018-07-05T07:58:35.896Z,22.8
2018-07-05T07:59:26.325Z,22.8
2018-07-05T08:00:15.182Z,22.8
2018-07-05T08:01:06.067Z,22.8
2018-07-05T08:01:56.418Z,22.8
2018-07-05T08:02:46.005Z,22.8
2018-07-05T08:03:36.803Z,22.8
2018-07-05T08:04:26.866Z,22.8
2018-07-05T08:05:16.573Z,22.8
2018-07-05T08:06:05.649Z,22.8
2018-07-05T08:06:56.846Z,22.8
2018-07-05T08:07:47.179Z,22.8
2018-07-05T08:08:36.943Z,22.8
2018-07-05T08:09:27.283Z,22.8
2018-07-05T08:10:16.844Z,22.8
2018-07-05T08:11:06.686Z,22.9
2018-07-05T08:11:56.099Z,22.8
2018-07-05T08:12:47.286Z,22.8
2018-07-05T08:13:37.372Z,22.8
2018-07-05T08:14:26.634Z,22.8
2018-07-05T08:15:16.814Z,22.8
2018-07-05T08:16:07.378Z,22.8
2018-07-05T08:16:57.380Z,22.8
2018-07-05T08:17:47.719Z,22.8
2018-07-05T08:18:37.745Z,22.8
2018-07-05T08:19:27.563Z,22.8
2018-07-05T08:20:17.595Z,22.9
2018-07-05T08:21:07.976Z,22.8
2018-07-05T08:21:57.453Z,22.8
2018-07-05T08:22:47.248Z,22.8
2018-07-05T08:23:37.593Z,22.9
2018-07-05T08:24:28.256Z,22.9
2018-07-05T08:25:18.048Z,22.9
2018-07-05T08:26:08.093Z,22.9
2018-07-05T08:26:58.173Z,22.9
2018-07-05T08:27:48.215Z,22.9
2018-07-05T08:28:37.685Z,22.9
2018-07-05T08:29:28.398Z,22.9
2018-07-05T08:30:18.452Z,22.9
2018-07-05T08:31:08.768Z,22.9
2018-07-05T08:31:58.811Z,22.9
2018-07-05T08:32:47.812Z,22.9
2018-07-05T08:33:38.438Z,22.9
2018-07-05T08:34:29.277Z,22.9
2018-07-05T08:35:18.826Z,22.9
2018-07-05T08:36:08.660Z,22.9
2018-07-05T08:36:58.627Z,22.9
2018-07-05T08:37:50.086Z,22.9
2018-07-05T08:38:38.823Z,22.9
2018-07-05T08:39:29.660Z,22.9
2018-07-05T08:40:18.685Z,22.9
2018-07-05T08:41:09.808Z,22.9
2018-07-05T08:41:59.602Z,22.9
2018-07-05T08:42:49.401Z,22.9
2018-07-05T08:43:39.691Z,22.9
2018-07-05T08:44:29.516Z,22.9
2018-07-05T08:45:19.585Z,22.9
2018-07-05T08:46:09.432Z,22.9
2018-07-05T08:47:00.021Z,22.9
2018-07-05T08:47:49.867Z,22.9
2018-07-05T08:48:39.844Z,22.9
2018-07-05T08:49:30.218Z,22.9
2018-07-05T08:50:19.679Z,22.9
2018-07-05T08:51:10.184Z,22.9
2018-07-05T08:51:59.553Z,22.9
2018-07-05T08:52:50.180Z,22.9
2018-07-05T08:53:39.968Z,22.9
2018-07-05T08:54:30.589Z,22.9
2018-07-05T08:55:20.156Z,22.9
2018-07-05T08:56:09.894Z,22.9
2018-07-05T08:57:01.061Z,23.1
2018-07-05T08:57:50.605Z,23.1
2018-07-05T08:58:40.447Z,23.2
2018-07-05T08:59:31.298Z,23.2
2018-07-05T09:00:20.780Z,23.2
2018-07-05T09:01:10.291Z,23.2
2018-07-05T09:02:00.951Z,23.3
2018-07-05T09:02:50.994Z,23.4
2018-07-05T09:03:41.101Z,23.4
2018-07-05T09:04:31.391Z,23.4
2018-07-05T09:05:22.320Z,23.7
2018-07-05T09:06:11.251Z,23.8
2018-07-05T09:07:00.535Z,23.8
2018-07-05T09:07:50.554Z,23.8
2018-07-05T09:08:41.140Z,23.7
2018-07-05T09:09:31.566Z,23.7
2018-07-05T09:10:22.012Z,23.6
2018-07-05T09:11:11.624Z,23.6
2018-07-05T09:12:02.273Z,23.6
2018-07-05T09:12:52.270Z,23.5
2018-07-05T09:13:41.835Z,23.4
2018-07-05T09:14:32.111Z,23.4
2018-07-05T09:15:22.235Z,23.4
2018-07-05T09:16:12.332Z,23.4
2018-07-05T09:17:01.591Z,23.3
2018-07-05T09:17:58.360Z,23.3
2018-07-05T09:18:42.773Z,23.3
2018-07-05T09:19:32.303Z,23.3
2018-07-05T09:20:22.443Z,23.3
2018-07-05T09:21:12.424Z,23.2
2018-07-05T09:22:03.029Z,23.2
2018-07-05T09:22:52.865Z,23.2
2018-07-05T09:23:43.969Z,23.2
2018-07-05T09:24:32.664Z,23.2
2018-07-05T09:25:22.548Z,23.2
2018-07-05T09:26:12.791Z,23.1
2018-07-05T09:27:02.857Z,23.1
2018-07-05T09:27:53.016Z,23.1
2018-07-05T09:28:43.075Z,23.1
2018-07-05T09:29:33.316Z,23.1
2018-07-05T09:30:23.430Z,23.1
2018-07-05T09:31:13.911Z,23.1
2018-07-05T09:32:03.000Z,23.2
2018-07-05T09:32:53.298Z,23.1
2018-07-05T09:33:42.124Z,23.1
2018-07-05T09:34:32.434Z,23.1
2018-07-05T09:35:23.862Z,23.1
2018-07-05T09:36:12.851Z,23.1
2018-07-05T09:37:03.553Z,23.1
2018-07-05T09:37:53.564Z,23.1
2018-07-05T09:38:43.262Z,23.1
2018-07-05T09:39:33.871Z,23.1
2018-07-05T09:40:24.003Z,23.1
2018-07-05T09:41:14.297Z,23.1
2018-07-05T09:42:04.362Z,23.1
2018-07-05T09:42:53.275Z,23.1
2018-07-05T09:43:44.459Z,23.1
2018-07-05T09:44:34.253Z,23.1
2018-07-05T09:45:24.586Z,23.1
2018-07-05T09:46:14.390Z,23.1
2018-07-05T09:47:06.487Z,23.1
2018-07-05T09:47:54.048Z,23.1
2018-07-05T09:48:43.856Z,23.1
2018-07-05T09:49:34.081Z,23.1
2018-07-05T09:50:23.996Z,23.1
2018-07-05T09:51:15.063Z,23.1
2018-07-05T09:52:05.143Z,23.1
2018-07-05T09:52:56.547Z,23.1
2018-07-05T09:53:44.393Z,23.1
2018-07-05T09:54:34.440Z,23.1
2018-07-05T09:55:25.125Z,23.1
2018-07-05T09:56:15.672Z,23.2
2018-07-05T09:57:05.529Z,23.2
2018-07-05T09:57:55.200Z,23.2
2018-07-05T09:58:45.611Z,23.1
2018-07-05T09:59:35.696Z,23.1
2018-07-05T10:00:26.029Z,23.1
2018-07-05T10:01:15.854Z,23.1
2018-07-05T10:02:04.859Z,23.1
2018-07-05T10:02:55.995Z,23.1
2018-07-05T10:03:47.873Z,23.2
2018-07-05T10:04:35.557Z,23.2
2018-07-05T10:05:25.942Z,23.1
2018-07-05T10:06:15.710Z,23.2
2018-07-05T10:07:06.328Z,23.2
2018-07-05T10:07:55.580Z,23.2
2018-07-05T10:08:45.453Z,23.3
2018-07-05T10:09:36.021Z,23.3
2018-07-05T10:10:26.269Z,23.3
2018-07-05T10:11:16.371Z,23.2
2018-07-05T10:12:06.718Z,23.2
2018-07-05T10:12:57.158Z,23.3
2018-07-05T10:13:49.064Z,23.3
2018-07-05T10:14:36.949Z,23.3
2018-07-05T10:15:26.702Z,23.3
2018-07-05T10:16:16.777Z,23.3
2018-07-05T10:17:07.449Z,23.2
2018-07-05T10:17:57.486Z,23.3
2018-07-05T10:18:47.484Z,23.3
2018-07-05T10:19:37.539Z,23.3
2018-07-05T10:20:27.366Z,23.3
2018-07-05T10:21:17.424Z,23.3
2018-07-05T10:22:06.915Z,23.3
2018-07-05T10:22:57.879Z,23.3
2018-07-05T10:23:47.615Z,23.3
2018-07-05T10:24:37.380Z,23.3
2018-07-05T10:25:28.032Z,23.3
2018-07-05T10:26:16.677Z,23.3
2018-07-05T10:27:08.580Z,23.3
2018-07-05T10:27:57.682Z,23.3
2018-07-05T10:28:47.721Z,23.3
2018-07-05T10:29:38.096Z,23.3
2018-07-05T10:30:27.635Z,23.3
2018-07-05T10:31:18.182Z,23.3
2018-07-05T10:32:08.031Z,23.3
2018-07-05T10:32:58.963Z,23.3
2018-07-05T10:33:48.393Z,23.3
2018-07-05T10:34:37.993Z,23.3
2018-07-05T10:35:27.980Z,23.2
2018-07-05T10:36:18.396Z,23.3
2018-07-05T10:37:08.686Z,23.2
2018-07-05T10:37:58.508Z,23.3
2018-07-05T10:38:48.851Z,23.2
2018-07-05T10:39:39.950Z,23.2
2018-07-05T10:40:29.226Z,23.2
2018-07-05T10:41:18.544Z,23.2
2018-07-05T10:42:08.552Z,23.2
2018-07-05T10:42:58.613Z,23.2
2018-07-05T10:43:48.648Z,23.2
2018-07-05T10:44:38.448Z,23.2
2018-07-05T10:45:29.111Z,23.2
2018-07-05T10:46:19.742Z,23.2
2018-07-05T10:47:09.497Z,23.2
2018-07-05T10:47:59.854Z,23.1
2018-07-05T10:48:49.056Z,23.1
2018-07-05T10:49:39.506Z,23.1
2018-07-05T10:50:29.504Z,23.1
2018-07-05T10:51:20.126Z,23.1
2018-07-05T10:52:09.603Z,23.1
2018-07-05T10:52:59.394Z,23.1
2018-07-05T10:53:49.719Z,23.1
2018-07-05T10:54:40.084Z,23.1
2018-07-05T10:55:29.134Z,23.1
2018-07-05T10:56:20.212Z,23.1
2018-07-05T10:57:09.978Z,23.1
2018-07-05T10:58:00.323Z,23.1
2018-07-05T10:58:50.649Z,23.1
2018-07-05T10:59:40.720Z,23.1
2018-07-05T11:00:29.956Z,23.1
2018-07-05T11:01:20.033Z,23.1
2018-07-05T11:02:10.357Z,23.1
2018-07-05T11:03:01.030Z,23.1
2018-07-05T11:03:51.038Z,23.1
2018-07-05T11:04:40.619Z,23.1
2018-07-05T11:05:30.655Z,23.1
2018-07-05T11:06:20.739Z,23.1